sensor_id;sensor_type;location;lat;lon;timestamp;P1;durP1;ratioP1;P2;durP2;ratioP2
21798;SDS011;24973;47.178;15.316;2023-03-20T00:00:33;12.87;;;7.17;;
21798;SDS011;24973;47.178;15.316;2023-03-20T00:03:23;11.40;;;7.77;;
21798;SDS011;24973;47.178;15.316;2023-03-20T00:06:15;10.63;;;7.93;;
21798;SDS011;24973;47.178;15.316;2023-03-20T00:09:04;14.33;;;6.93;;
21798;SDS011;24973;47.178;15.316;2023-03-20T00:11:53;10.27;;;7.47;;
21798;SDS011;24973;47.178;15.316;2023-03-20T00:14:43;10.93;;;7.40;;
21798;SDS011;24973;47.178;15.316;2023-03-20T00:17:32;9.17;;;7.50;;
21798;SDS011;24973;47.178;15.316;2023-03-20T00:20:21;10.37;;;8.43;;
21798;SDS011;24973;47.178;15.316;2023-03-20T00:23:12;9.63;;;8.43;;
21798;SDS011;24973;47.178;15.316;2023-03-20T00:26:01;8.07;;;7.33;;
21798;SDS011;24973;47.178;15.316;2023-03-20T00:28:50;10.07;;;7.83;;
21798;SDS011;24973;47.178;15.316;2023-03-20T00:31:39;14.10;;;8.83;;
21798;SDS011;24973;47.178;15.316;2023-03-20T00:34:29;8.57;;;7.50;;
21798;SDS011;24973;47.178;15.316;2023-03-20T00:37:18;10.87;;;7.37;;
21798;SDS011;24973;47.178;15.316;2023-03-20T00:40:09;12.73;;;7.57;;
21798;SDS011;24973;47.178;15.316;2023-03-20T00:42:59;10.83;;;7.57;;
21798;SDS011;24973;47.178;15.316;2023-03-20T00:45:50;14.00;;;8.83;;
21798;SDS011;24973;47.178;15.316;2023-03-20T00:48:39;10.83;;;7.97;;
21798;SDS011;24973;47.178;15.316;2023-03-20T00:51:29;14.83;;;9.57;;
21798;SDS011;24973;47.178;15.316;2023-03-20T00:54:17;11.67;;;7.63;;
21798;SDS011;24973;47.178;15.316;2023-03-20T00:57:10;9.00;;;7.90;;
21798;SDS011;24973;47.178;15.316;2023-03-20T01:00:03;10.73;;;7.73;;
21798;SDS011;24973;47.178;15.316;2023-03-20T01:02:54;10.50;;;7.57;;
21798;SDS011;24973;47.178;15.316;2023-03-20T01:05:45;15.03;;;8.50;;
21798;SDS011;24973;47.178;15.316;2023-03-20T01:08:34;25.27;;;8.17;;
21798;SDS011;24973;47.178;15.316;2023-03-20T01:11:23;10.60;;;7.33;;
21798;SDS011;24973;47.178;15.316;2023-03-20T01:14:14;11.97;;;6.60;;
21798;SDS011;24973;47.178;15.316;2023-03-20T01:17:03;12.87;;;9.03;;
21798;SDS011;24973;47.178;15.316;2023-03-20T01:19:53;9.87;;;7.00;;
21798;SDS011;24973;47.178;15.316;2023-03-20T01:22:42;9.40;;;8.33;;
21798;SDS011;24973;47.178;15.316;2023-03-20T01:25:31;9.47;;;7.53;;
21798;SDS011;24973;47.178;15.316;2023-03-20T01:28:21;8.53;;;7.50;;
21798;SDS011;24973;47.178;15.316;2023-03-20T01:31:12;11.70;;;8.27;;
21798;SDS011;24973;47.178;15.316;2023-03-20T01:34:02;11.60;;;8.97;;
21798;SDS011;24973;47.178;15.316;2023-03-20T01:36:52;12.33;;;9.40;;
21798;SDS011;24973;47.178;15.316;2023-03-20T01:39:42;9.87;;;8.03;;
21798;SDS011;24973;47.178;15.316;2023-03-20T01:42:31;12.20;;;9.17;;
21798;SDS011;24973;47.178;15.316;2023-03-20T01:45:21;12.10;;;8.70;;
21798;SDS011;24973;47.178;15.316;2023-03-20T01:48:12;14.63;;;7.80;;
21798;SDS011;24973;47.178;15.316;2023-03-20T01:51:03;9.77;;;8.20;;
21798;SDS011;24973;47.178;15.316;2023-03-20T01:53:53;10.53;;;7.93;;
21798;SDS011;24973;47.178;15.316;2023-03-20T01:56:44;10.57;;;7.93;;
21798;SDS011;24973;47.178;15.316;2023-03-20T01:59:36;9.40;;;8.03;;
21798;SDS011;24973;47.178;15.316;2023-03-20T02:02:28;9.47;;;7.70;;
21798;SDS011;24973;47.178;15.316;2023-03-20T02:05:19;8.43;;;7.53;;
21798;SDS011;24973;47.178;15.316;2023-03-20T02:08:16;10.50;;;8.57;;
21798;SDS011;24973;47.178;15.316;2023-03-20T02:11:10;8.83;;;6.97;;
21798;SDS011;24973;47.178;15.316;2023-03-20T02:14:00;11.33;;;7.53;;
21798;SDS011;24973;47.178;15.316;2023-03-20T02:16:49;14.30;;;8.57;;
21798;SDS011;24973;47.178;15.316;2023-03-20T02:19:39;9.70;;;8.13;;
21798;SDS011;24973;47.178;15.316;2023-03-20T02:26:19;8.47;;;7.23;;
21798;SDS011;24973;47.178;15.316;2023-03-20T02:29:35;12.20;;;9.93;;
21798;SDS011;24973;47.178;15.316;2023-03-20T02:33:01;10.70;;;7.80;;
21798;SDS011;24973;47.178;15.316;2023-03-20T02:39:42;9.50;;;8.33;;
21798;SDS011;24973;47.178;15.316;2023-03-20T02:42:37;10.90;;;8.37;;
21798;SDS011;24973;47.178;15.316;2023-03-20T02:45:30;10.57;;;8.23;;
21798;SDS011;24973;47.178;15.316;2023-03-20T02:48:26;9.57;;;8.27;;
21798;SDS011;24973;47.178;15.316;2023-03-20T02:51:26;12.57;;;8.20;;
21798;SDS011;24973;47.178;15.316;2023-03-20T02:54:23;10.43;;;7.50;;
21798;SDS011;24973;47.178;15.316;2023-03-20T02:57:15;11.10;;;7.63;;
21798;SDS011;24973;47.178;15.316;2023-03-20T03:00:08;15.57;;;7.63;;
21798;SDS011;24973;47.178;15.316;2023-03-20T03:03:03;10.60;;;8.27;;
21798;SDS011;24973;47.178;15.316;2023-03-20T03:05:54;15.30;;;8.83;;
21798;SDS011;24973;47.178;15.316;2023-03-20T03:08:46;9.37;;;8.37;;
21798;SDS011;24973;47.178;15.316;2023-03-20T03:11:38;11.00;;;8.10;;
21798;SDS011;24973;47.178;15.316;2023-03-20T03:14:34;9.37;;;8.30;;
21798;SDS011;24973;47.178;15.316;2023-03-20T03:17:26;11.83;;;8.47;;
21798;SDS011;24973;47.178;15.316;2023-03-20T03:20:19;7.93;;;6.57;;
21798;SDS011;24973;47.178;15.316;2023-03-20T03:23:13;10.40;;;8.33;;
21798;SDS011;24973;47.178;15.316;2023-03-20T03:26:13;8.87;;;6.87;;
21798;SDS011;24973;47.178;15.316;2023-03-20T03:29:06;10.27;;;7.17;;
21798;SDS011;24973;47.178;15.316;2023-03-20T03:32:01;7.80;;;6.87;;
21798;SDS011;24973;47.178;15.316;2023-03-20T03:34:52;13.43;;;9.27;;
21798;SDS011;24973;47.178;15.316;2023-03-20T03:37:43;12.23;;;8.17;;
21798;SDS011;24973;47.178;15.316;2023-03-20T03:40:38;9.00;;;8.10;;
21798;SDS011;24973;47.178;15.316;2023-03-20T03:43:30;7.53;;;5.30;;
21798;SDS011;24973;47.178;15.316;2023-03-20T03:46:22;8.97;;;7.73;;
21798;SDS011;24973;47.178;15.316;2023-03-20T03:49:17;7.47;;;6.73;;
21798;SDS011;24973;47.178;15.316;2023-03-20T03:52:10;11.03;;;8.63;;
21798;SDS011;24973;47.178;15.316;2023-03-20T03:55:02;8.97;;;8.03;;
21798;SDS011;24973;47.178;15.316;2023-03-20T03:57:54;9.40;;;8.40;;
21798;SDS011;24973;47.178;15.316;2023-03-20T04:00:44;10.87;;;8.43;;
21798;SDS011;24973;47.178;15.316;2023-03-20T04:03:37;13.80;;;8.47;;
21798;SDS011;24973;47.178;15.316;2023-03-20T04:06:28;9.20;;;8.27;;
21798;SDS011;24973;47.178;15.316;2023-03-20T04:09:18;12.67;;;8.23;;
21798;SDS011;24973;47.178;15.316;2023-03-20T04:12:08;9.73;;;7.83;;
21798;SDS011;24973;47.178;15.316;2023-03-20T04:15:13;10.10;;;6.17;;
21798;SDS011;24973;47.178;15.316;2023-03-20T04:18:03;8.37;;;6.87;;
21798;SDS011;24973;47.178;15.316;2023-03-20T04:20:52;9.77;;;8.43;;
21798;SDS011;24973;47.178;15.316;2023-03-20T04:23:43;13.53;;;9.27;;
21798;SDS011;24973;47.178;15.316;2023-03-20T04:26:32;10.63;;;7.83;;
21798;SDS011;24973;47.178;15.316;2023-03-20T04:29:21;11.83;;;9.57;;
21798;SDS011;24973;47.178;15.316;2023-03-20T04:32:10;10.20;;;8.83;;
21798;SDS011;24973;47.178;15.316;2023-03-20T04:34:59;14.30;;;9.70;;
21798;SDS011;24973;47.178;15.316;2023-03-20T04:37:48;11.90;;;9.23;;
21798;SDS011;24973;47.178;15.316;2023-03-20T04:40:39;10.03;;;7.20;;
21798;SDS011;24973;47.178;15.316;2023-03-20T04:43:28;8.90;;;8.07;;
21798;SDS011;24973;47.178;15.316;2023-03-20T04:46:17;20.17;;;8.87;;
21798;SDS011;24973;47.178;15.316;2023-03-20T04:49:06;13.67;;;9.13;;
21798;SDS011;24973;47.178;15.316;2023-03-20T04:51:55;10.50;;;7.43;;
21798;SDS011;24973;47.178;15.316;2023-03-20T04:54:44;12.03;;;9.63;;
21798;SDS011;24973;47.178;15.316;2023-03-20T04:57:34;9.37;;;7.87;;
21798;SDS011;24973;47.178;15.316;2023-03-20T05:00:23;10.83;;;8.17;;
21798;SDS011;24973;47.178;15.316;2023-03-20T05:03:12;12.17;;;8.00;;
21798;SDS011;24973;47.178;15.316;2023-03-20T05:06:01;14.07;;;9.27;;
21798;SDS011;24973;47.178;15.316;2023-03-20T05:08:51;12.20;;;8.30;;
21798;SDS011;24973;47.178;15.316;2023-03-20T05:11:40;11.60;;;8.50;;
21798;SDS011;24973;47.178;15.316;2023-03-20T05:14:30;11.13;;;8.73;;
21798;SDS011;24973;47.178;15.316;2023-03-20T05:17:19;13.97;;;9.00;;
21798;SDS011;24973;47.178;15.316;2023-03-20T05:20:09;11.40;;;8.30;;
21798;SDS011;24973;47.178;15.316;2023-03-20T05:22:58;9.43;;;7.60;;
21798;SDS011;24973;47.178;15.316;2023-03-20T05:25:47;10.07;;;7.73;;
21798;SDS011;24973;47.178;15.316;2023-03-20T05:28:36;8.30;;;7.50;;
21798;SDS011;24973;47.178;15.316;2023-03-20T05:31:26;10.60;;;8.57;;
21798;SDS011;24973;47.178;15.316;2023-03-20T05:34:15;13.13;;;8.23;;
21798;SDS011;24973;47.178;15.316;2023-03-20T05:37:04;8.87;;;7.37;;
21798;SDS011;24973;47.178;15.316;2023-03-20T05:39:53;13.03;;;9.23;;
21798;SDS011;24973;47.178;15.316;2023-03-20T05:42:42;9.77;;;8.80;;
21798;SDS011;24973;47.178;15.316;2023-03-20T05:45:32;12.60;;;9.23;;
21798;SDS011;24973;47.178;15.316;2023-03-20T05:48:23;10.30;;;8.97;;
21798;SDS011;24973;47.178;15.316;2023-03-20T05:51:12;8.80;;;7.93;;
21798;SDS011;24973;47.178;15.316;2023-03-20T05:54:01;10.07;;;8.60;;
21798;SDS011;24973;47.178;15.316;2023-03-20T05:56:50;14.37;;;11.70;;
21798;SDS011;24973;47.178;15.316;2023-03-20T05:59:39;18.73;;;9.10;;
21798;SDS011;24973;47.178;15.316;2023-03-20T06:02:28;10.13;;;8.53;;
21798;SDS011;24973;47.178;15.316;2023-03-20T06:05:18;12.03;;;10.83;;
21798;SDS011;24973;47.178;15.316;2023-03-20T06:08:07;10.30;;;9.23;;
21798;SDS011;24973;47.178;15.316;2023-03-20T06:10:56;11.70;;;9.50;;
21798;SDS011;24973;47.178;15.316;2023-03-20T06:13:46;15.00;;;9.37;;
21798;SDS011;24973;47.178;15.316;2023-03-20T06:16:36;11.43;;;9.20;;
21798;SDS011;24973;47.178;15.316;2023-03-20T06:19:25;11.17;;;9.37;;
21798;SDS011;24973;47.178;15.316;2023-03-20T06:22:15;15.60;;;10.33;;
21798;SDS011;24973;47.178;15.316;2023-03-20T06:25:05;11.17;;;8.93;;
21798;SDS011;24973;47.178;15.316;2023-03-20T06:27:54;13.40;;;9.20;;
21798;SDS011;24973;47.178;15.316;2023-03-20T06:30:43;9.20;;;8.27;;
21798;SDS011;24973;47.178;15.316;2023-03-20T06:33:32;10.43;;;8.77;;
21798;SDS011;24973;47.178;15.316;2023-03-20T06:36:22;14.87;;;8.33;;
21798;SDS011;24973;47.178;15.316;2023-03-20T06:39:12;14.70;;;8.13;;
21798;SDS011;24973;47.178;15.316;2023-03-20T06:42:01;15.60;;;8.97;;
21798;SDS011;24973;47.178;15.316;2023-03-20T06:44:51;11.17;;;9.07;;
21798;SDS011;24973;47.178;15.316;2023-03-20T06:47:40;11.67;;;9.63;;
21798;SDS011;24973;47.178;15.316;2023-03-20T06:50:29;18.63;;;12.33;;
21798;SDS011;24973;47.178;15.316;2023-03-20T06:53:18;16.37;;;12.07;;
21798;SDS011;24973;47.178;15.316;2023-03-20T06:56:09;11.97;;;10.33;;
21798;SDS011;24973;47.178;15.316;2023-03-20T06:58:58;12.13;;;10.07;;
21798;SDS011;24973;47.178;15.316;2023-03-20T07:01:47;13.37;;;10.40;;
21798;SDS011;24973;47.178;15.316;2023-03-20T07:04:36;10.97;;;9.23;;
21798;SDS011;24973;47.178;15.316;2023-03-20T07:07:25;11.47;;;9.30;;
21798;SDS011;24973;47.178;15.316;2023-03-20T07:10:14;11.97;;;8.73;;
21798;SDS011;24973;47.178;15.316;2023-03-20T07:13:05;11.27;;;9.50;;
21798;SDS011;24973;47.178;15.316;2023-03-20T07:15:54;11.13;;;9.07;;
21798;SDS011;24973;47.178;15.316;2023-03-20T07:18:50;12.37;;;10.00;;
21798;SDS011;24973;47.178;15.316;2023-03-20T07:21:39;13.20;;;9.37;;
21798;SDS011;24973;47.178;15.316;2023-03-20T07:24:28;14.10;;;10.00;;
21798;SDS011;24973;47.178;15.316;2023-03-20T07:27:18;11.00;;;8.73;;
21798;SDS011;24973;47.178;15.316;2023-03-20T07:30:10;17.27;;;10.87;;
21798;SDS011;24973;47.178;15.316;2023-03-20T07:32:59;13.67;;;9.97;;
21798;SDS011;24973;47.178;15.316;2023-03-20T07:35:50;16.97;;;9.23;;
21798;SDS011;24973;47.178;15.316;2023-03-20T07:38:40;17.67;;;10.30;;
21798;SDS011;24973;47.178;15.316;2023-03-20T07:41:29;12.57;;;9.37;;
21798;SDS011;24973;47.178;15.316;2023-03-20T07:44:18;13.17;;;9.23;;
21798;SDS011;24973;47.178;15.316;2023-03-20T07:47:08;18.47;;;11.53;;
21798;SDS011;24973;47.178;15.316;2023-03-20T07:49:57;11.23;;;10.00;;
21798;SDS011;24973;47.178;15.316;2023-03-20T07:52:46;14.43;;;10.33;;
21798;SDS011;24973;47.178;15.316;2023-03-20T07:55:36;11.50;;;10.27;;
21798;SDS011;24973;47.178;15.316;2023-03-20T07:58:25;12.07;;;9.30;;
21798;SDS011;24973;47.178;15.316;2023-03-20T08:01:14;16.13;;;9.60;;
21798;SDS011;24973;47.178;15.316;2023-03-20T08:04:05;10.97;;;9.17;;
21798;SDS011;24973;47.178;15.316;2023-03-20T08:06:54;12.97;;;10.50;;
21798;SDS011;24973;47.178;15.316;2023-03-20T08:09:43;14.00;;;9.37;;
21798;SDS011;24973;47.178;15.316;2023-03-20T08:12:32;14.27;;;9.43;;
21798;SDS011;24973;47.178;15.316;2023-03-20T08:15:21;15.37;;;10.23;;
21798;SDS011;24973;47.178;15.316;2023-03-20T08:18:10;12.43;;;10.13;;
21798;SDS011;24973;47.178;15.316;2023-03-20T08:21:00;13.07;;;9.10;;
21798;SDS011;24973;47.178;15.316;2023-03-20T08:23:49;15.90;;;9.07;;
21798;SDS011;24973;47.178;15.316;2023-03-20T08:26:38;16.60;;;9.43;;
21798;SDS011;24973;47.178;15.316;2023-03-20T08:29:27;16.00;;;10.47;;
21798;SDS011;24973;47.178;15.316;2023-03-20T08:32:16;11.33;;;9.20;;
21798;SDS011;24973;47.178;15.316;2023-03-20T08:35:06;14.53;;;9.13;;
21798;SDS011;24973;47.178;15.316;2023-03-20T08:38:12;12.77;;;8.73;;
21798;SDS011;24973;47.178;15.316;2023-03-20T08:41:01;12.03;;;8.70;;
21798;SDS011;24973;47.178;15.316;2023-03-20T08:43:51;14.80;;;9.87;;
21798;SDS011;24973;47.178;15.316;2023-03-20T08:46:40;12.20;;;8.40;;
21798;SDS011;24973;47.178;15.316;2023-03-20T08:49:30;11.73;;;9.40;;
21798;SDS011;24973;47.178;15.316;2023-03-20T08:52:19;15.80;;;8.07;;
21798;SDS011;24973;47.178;15.316;2023-03-20T08:55:09;13.37;;;8.57;;
21798;SDS011;24973;47.178;15.316;2023-03-20T08:57:59;15.30;;;7.60;;
21798;SDS011;24973;47.178;15.316;2023-03-20T09:00:48;15.67;;;8.37;;
21798;SDS011;24973;47.178;15.316;2023-03-20T09:03:38;12.50;;;8.60;;
21798;SDS011;24973;47.178;15.316;2023-03-20T09:06:27;16.27;;;8.40;;
21798;SDS011;24973;47.178;15.316;2023-03-20T09:09:16;11.03;;;7.57;;
21798;SDS011;24973;47.178;15.316;2023-03-20T09:12:08;9.83;;;8.47;;
21798;SDS011;24973;47.178;15.316;2023-03-20T09:14:57;12.33;;;8.03;;
21798;SDS011;24973;47.178;15.316;2023-03-20T09:17:46;11.40;;;7.90;;
21798;SDS011;24973;47.178;15.316;2023-03-20T09:20:35;9.37;;;6.87;;
21798;SDS011;24973;47.178;15.316;2023-03-20T09:23:24;9.43;;;7.90;;
21798;SDS011;24973;47.178;15.316;2023-03-20T09:26:13;10.50;;;7.00;;
21798;SDS011;24973;47.178;15.316;2023-03-20T09:29:04;13.23;;;7.83;;
21798;SDS011;24973;47.178;15.316;2023-03-20T09:31:53;10.77;;;8.33;;
21798;SDS011;24973;47.178;15.316;2023-03-20T09:34:42;11.93;;;7.63;;
21798;SDS011;24973;47.178;15.316;2023-03-20T09:37:31;11.23;;;7.73;;
21798;SDS011;24973;47.178;15.316;2023-03-20T09:40:21;12.23;;;7.70;;
21798;SDS011;24973;47.178;15.316;2023-03-20T09:43:13;13.63;;;8.00;;
21798;SDS011;24973;47.178;15.316;2023-03-20T09:46:19;11.77;;;6.63;;
21798;SDS011;24973;47.178;15.316;2023-03-20T09:49:17;10.93;;;8.23;;
21798;SDS011;24973;47.178;15.316;2023-03-20T09:52:18;10.83;;;6.97;;
21798;SDS011;24973;47.178;15.316;2023-03-20T09:55:11;12.43;;;6.97;;
21798;SDS011;24973;47.178;15.316;2023-03-20T09:58:04;9.50;;;7.00;;
21798;SDS011;24973;47.178;15.316;2023-03-20T10:01:00;8.87;;;6.40;;
21798;SDS011;24973;47.178;15.316;2023-03-20T10:03:54;15.27;;;7.53;;
21798;SDS011;24973;47.178;15.316;2023-03-20T10:06:43;14.10;;;6.93;;
21798;SDS011;24973;47.178;15.316;2023-03-20T10:09:33;14.93;;;6.23;;
21798;SDS011;24973;47.178;15.316;2023-03-20T10:12:24;13.53;;;6.50;;
21798;SDS011;24973;47.178;15.316;2023-03-20T10:15:19;7.87;;;6.00;;
21798;SDS011;24973;47.178;15.316;2023-03-20T10:18:17;20.60;;;6.70;;
21798;SDS011;24973;47.178;15.316;2023-03-20T10:21:11;17.70;;;6.63;;
21798;SDS011;24973;47.178;15.316;2023-03-20T10:24:04;12.63;;;6.07;;
21798;SDS011;24973;47.178;15.316;2023-03-20T10:26:57;9.93;;;7.00;;
21798;SDS011;24973;47.178;15.316;2023-03-20T10:29:51;12.93;;;5.50;;
21798;SDS011;24973;47.178;15.316;2023-03-20T10:32:47;15.33;;;6.50;;
21798;SDS011;24973;47.178;15.316;2023-03-20T10:35:41;13.67;;;6.40;;
21798;SDS011;24973;47.178;15.316;2023-03-20T10:38:36;9.53;;;6.60;;
21798;SDS011;24973;47.178;15.316;2023-03-20T10:41:29;13.50;;;6.13;;
21798;SDS011;24973;47.178;15.316;2023-03-20T10:44:23;12.30;;;6.87;;
21798;SDS011;24973;47.178;15.316;2023-03-20T10:47:17;38.10;;;18.13;;
21798;SDS011;24973;47.178;15.316;2023-03-20T10:50:09;20.40;;;11.33;;
21798;SDS011;24973;47.178;15.316;2023-03-20T10:53:02;15.87;;;9.70;;
21798;SDS011;24973;47.178;15.316;2023-03-20T10:55:54;15.43;;;7.60;;
21798;SDS011;24973;47.178;15.316;2023-03-20T10:58:47;7.00;;;6.30;;
21798;SDS011;24973;47.178;15.316;2023-03-20T11:01:40;8.93;;;5.40;;
21798;SDS011;24973;47.178;15.316;2023-03-20T11:04:29;7.17;;;5.30;;
21798;SDS011;24973;47.178;15.316;2023-03-20T11:07:20;8.13;;;4.50;;
21798;SDS011;24973;47.178;15.316;2023-03-20T11:10:13;7.43;;;4.30;;
21798;SDS011;24973;47.178;15.316;2023-03-20T11:13:12;6.77;;;4.00;;
21798;SDS011;24973;47.178;15.316;2023-03-20T11:16:10;6.80;;;4.10;;
21798;SDS011;24973;47.178;15.316;2023-03-20T11:19:06;4.80;;;3.77;;
21798;SDS011;24973;47.178;15.316;2023-03-20T11:21:58;8.17;;;3.93;;
21798;SDS011;24973;47.178;15.316;2023-03-20T11:24:50;6.70;;;2.77;;
21798;SDS011;24973;47.178;15.316;2023-03-20T11:27:41;5.90;;;3.80;;
21798;SDS011;24973;47.178;15.316;2023-03-20T11:30:31;4.43;;;3.60;;
21798;SDS011;24973;47.178;15.316;2023-03-20T11:33:20;11.20;;;4.53;;
21798;SDS011;24973;47.178;15.316;2023-03-20T11:36:10;5.37;;;3.33;;
21798;SDS011;24973;47.178;15.316;2023-03-20T11:39:05;8.67;;;3.77;;
21798;SDS011;24973;47.178;15.316;2023-03-20T11:41:58;6.13;;;4.40;;
21798;SDS011;24973;47.178;15.316;2023-03-20T11:44:55;3.33;;;2.50;;
21798;SDS011;24973;47.178;15.316;2023-03-20T11:47:49;2.73;;;2.40;;
21798;SDS011;24973;47.178;15.316;2023-03-20T11:50:41;4.83;;;2.13;;
21798;SDS011;24973;47.178;15.316;2023-03-20T11:53:33;3.73;;;2.43;;
21798;SDS011;24973;47.178;15.316;2023-03-20T11:56:25;8.87;;;2.53;;
21798;SDS011;24973;47.178;15.316;2023-03-20T11:59:15;2.63;;;2.27;;
21798;SDS011;24973;47.178;15.316;2023-03-20T12:02:11;2.80;;;2.20;;
21798;SDS011;24973;47.178;15.316;2023-03-20T12:05:17;3.80;;;2.73;;
21798;SDS011;24973;47.178;15.316;2023-03-20T12:08:16;2.53;;;1.70;;
21798;SDS011;24973;47.178;15.316;2023-03-20T12:11:14;2.10;;;1.90;;
21798;SDS011;24973;47.178;15.316;2023-03-20T12:14:22;5.90;;;1.93;;
21798;SDS011;24973;47.178;15.316;2023-03-20T12:17:23;2.63;;;2.00;;
21798;SDS011;24973;47.178;15.316;2023-03-20T12:20:32;2.37;;;1.93;;
21798;SDS011;24973;47.178;15.316;2023-03-20T12:23:27;2.10;;;1.90;;
21798;SDS011;24973;47.178;15.316;2023-03-20T12:26:20;2.50;;;1.67;;
21798;SDS011;24973;47.178;15.316;2023-03-20T12:29:21;1.80;;;1.57;;
21798;SDS011;24973;47.178;15.316;2023-03-20T12:32:14;1.57;;;1.47;;
21798;SDS011;24973;47.178;15.316;2023-03-20T12:35:09;1.70;;;1.60;;
21798;SDS011;24973;47.178;15.316;2023-03-20T12:38:03;4.40;;;1.83;;
21798;SDS011;24973;47.178;15.316;2023-03-20T12:40:59;3.97;;;1.77;;
21798;SDS011;24973;47.178;15.316;2023-03-20T12:44:11;3.03;;;1.73;;
21798;SDS011;24973;47.178;15.316;2023-03-20T12:47:06;4.80;;;1.57;;
21798;SDS011;24973;47.178;15.316;2023-03-20T12:50:12;4.10;;;2.10;;
21798;SDS011;24973;47.178;15.316;2023-03-20T12:53:10;2.97;;;1.87;;
21798;SDS011;24973;47.178;15.316;2023-03-20T12:56:24;1.73;;;1.57;;
21798;SDS011;24973;47.178;15.316;2023-03-20T12:59:20;2.60;;;1.90;;
21798;SDS011;24973;47.178;15.316;2023-03-20T13:02:17;2.17;;;1.90;;
21798;SDS011;24973;47.178;15.316;2023-03-20T13:05:20;2.90;;;1.90;;
21798;SDS011;24973;47.178;15.316;2023-03-20T13:08:28;2.50;;;2.17;;
21798;SDS011;24973;47.178;15.316;2023-03-20T13:11:45;2.50;;;2.03;;
21798;SDS011;24973;47.178;15.316;2023-03-20T13:14:40;2.17;;;1.93;;
21798;SDS011;24973;47.178;15.316;2023-03-20T13:17:33;2.00;;;1.73;;
21798;SDS011;24973;47.178;15.316;2023-03-20T13:20:27;3.07;;;1.83;;
21798;SDS011;24973;47.178;15.316;2023-03-20T13:23:20;1.80;;;1.70;;
21798;SDS011;24973;47.178;15.316;2023-03-20T13:26:14;2.57;;;1.70;;
21798;SDS011;24973;47.178;15.316;2023-03-20T13:29:10;1.47;;;1.33;;
21798;SDS011;24973;47.178;15.316;2023-03-20T13:32:05;2.13;;;1.40;;
21798;SDS011;24973;47.178;15.316;2023-03-20T13:35:04;1.67;;;1.20;;
21798;SDS011;24973;47.178;15.316;2023-03-20T13:38:05;4.53;;;1.93;;
21798;SDS011;24973;47.178;15.316;2023-03-20T13:40:57;1.47;;;1.27;;
21798;SDS011;24973;47.178;15.316;2023-03-20T13:43:51;2.20;;;1.50;;
21798;SDS011;24973;47.178;15.316;2023-03-20T13:46:44;11.40;;;6.27;;
21798;SDS011;24973;47.178;15.316;2023-03-20T13:49:35;2.47;;;1.97;;
21798;SDS011;24973;47.178;15.316;2023-03-20T13:52:27;3.73;;;1.70;;
21798;SDS011;24973;47.178;15.316;2023-03-20T13:55:19;4.60;;;1.90;;
21798;SDS011;24973;47.178;15.316;2023-03-20T13:58:15;4.13;;;3.13;;
21798;SDS011;24973;47.178;15.316;2023-03-20T14:01:15;3.93;;;2.43;;
21798;SDS011;24973;47.178;15.316;2023-03-20T14:04:08;3.47;;;1.90;;
21798;SDS011;24973;47.178;15.316;2023-03-20T14:07:23;2.70;;;1.90;;
21798;SDS011;24973;47.178;15.316;2023-03-20T14:10:34;1.57;;;1.43;;
21798;SDS011;24973;47.178;15.316;2023-03-20T14:13:24;1.50;;;1.40;;
21798;SDS011;24973;47.178;15.316;2023-03-20T14:16:16;4.20;;;1.57;;
21798;SDS011;24973;47.178;15.316;2023-03-20T14:19:07;1.50;;;1.33;;
21798;SDS011;24973;47.178;15.316;2023-03-20T14:22:02;6.20;;;2.00;;
21798;SDS011;24973;47.178;15.316;2023-03-20T14:24:55;2.43;;;1.40;;
21798;SDS011;24973;47.178;15.316;2023-03-20T14:27:52;1.53;;;1.17;;
21798;SDS011;24973;47.178;15.316;2023-03-20T14:30:42;2.87;;;1.37;;
21798;SDS011;24973;47.178;15.316;2023-03-20T14:33:33;1.97;;;1.40;;
21798;SDS011;24973;47.178;15.316;2023-03-20T14:36:40;1.63;;;1.07;;
21798;SDS011;24973;47.178;15.316;2023-03-20T14:39:33;1.03;;;1.03;;
21798;SDS011;24973;47.178;15.316;2023-03-20T14:42:34;2.27;;;1.10;;
21798;SDS011;24973;47.178;15.316;2023-03-20T14:45:28;1.17;;;1.07;;
21798;SDS011;24973;47.178;15.316;2023-03-20T14:48:27;1.20;;;1.10;;
21798;SDS011;24973;47.178;15.316;2023-03-20T14:51:32;1.87;;;1.10;;
21798;SDS011;24973;47.178;15.316;2023-03-20T14:54:26;1.23;;;1.13;;
21798;SDS011;24973;47.178;15.316;2023-03-20T14:57:17;1.73;;;0.90;;
21798;SDS011;24973;47.178;15.316;2023-03-20T15:00:15;1.43;;;0.90;;
21798;SDS011;24973;47.178;15.316;2023-03-20T15:03:07;2.13;;;1.13;;
21798;SDS011;24973;47.178;15.316;2023-03-20T15:05:58;2.23;;;1.00;;
21798;SDS011;24973;47.178;15.316;2023-03-20T15:08:50;1.33;;;1.00;;
21798;SDS011;24973;47.178;15.316;2023-03-20T15:11:41;1.47;;;1.07;;
21798;SDS011;24973;47.178;15.316;2023-03-20T15:14:32;1.23;;;0.90;;
21798;SDS011;24973;47.178;15.316;2023-03-20T15:17:29;2.20;;;0.80;;
21798;SDS011;24973;47.178;15.316;2023-03-20T15:20:23;0.73;;;0.73;;
21798;SDS011;24973;47.178;15.316;2023-03-20T15:23:14;1.00;;;1.00;;
21798;SDS011;24973;47.178;15.316;2023-03-20T15:26:05;20.77;;;7.50;;
21798;SDS011;24973;47.178;15.316;2023-03-20T15:28:57;14.40;;;5.00;;
21798;SDS011;24973;47.178;15.316;2023-03-20T15:31:50;5.43;;;2.50;;
21798;SDS011;24973;47.178;15.316;2023-03-20T15:34:58;1.40;;;1.20;;
21798;SDS011;24973;47.178;15.316;2023-03-20T15:37:47;2.97;;;1.27;;
21798;SDS011;24973;47.178;15.316;2023-03-20T15:40:37;2.80;;;2.20;;
21798;SDS011;24973;47.178;15.316;2023-03-20T15:43:37;7.60;;;3.72;;
21798;SDS011;24973;47.178;15.316;2023-03-20T15:46:26;6.03;;;2.30;;
21798;SDS011;24973;47.178;15.316;2023-03-20T15:49:15;3.87;;;2.30;;
21798;SDS011;24973;47.178;15.316;2023-03-20T15:52:06;3.50;;;1.80;;
21798;SDS011;24973;47.178;15.316;2023-03-20T15:55:10;1.67;;;1.20;;
21798;SDS011;24973;47.178;15.316;2023-03-20T15:58:01;4.43;;;1.33;;
21798;SDS011;24973;47.178;15.316;2023-03-20T16:00:52;2.20;;;0.83;;
21798;SDS011;24973;47.178;15.316;2023-03-20T16:03:41;2.50;;;1.27;;
21798;SDS011;24973;47.178;15.316;2023-03-20T16:06:30;4.23;;;1.80;;
21798;SDS011;24973;47.178;15.316;2023-03-20T16:09:19;14.73;;;5.60;;
21798;SDS011;24973;47.178;15.316;2023-03-20T16:12:08;11.80;;;4.73;;
21798;SDS011;24973;47.178;15.316;2023-03-20T16:15:03;10.20;;;5.30;;
21798;SDS011;24973;47.178;15.316;2023-03-20T16:17:54;7.27;;;2.73;;
21798;SDS011;24973;47.178;15.316;2023-03-20T16:20:46;8.20;;;3.77;;
21798;SDS011;24973;47.178;15.316;2023-03-20T16:23:37;4.73;;;1.80;;
21798;SDS011;24973;47.178;15.316;2023-03-20T16:26:27;2.73;;;2.00;;
21798;SDS011;24973;47.178;15.316;2023-03-20T16:29:16;4.30;;;2.33;;
21798;SDS011;24973;47.178;15.316;2023-03-20T16:32:22;4.60;;;1.83;;
21798;SDS011;24973;47.178;15.316;2023-03-20T16:35:17;4.43;;;3.30;;
21798;SDS011;24973;47.178;15.316;2023-03-20T16:38:14;2.97;;;2.60;;
21798;SDS011;24973;47.178;15.316;2023-03-20T16:41:13;4.13;;;3.43;;
21798;SDS011;24973;47.178;15.316;2023-03-20T16:44:04;1.90;;;1.50;;
21798;SDS011;24973;47.178;15.316;2023-03-20T16:46:56;1.23;;;1.00;;
21798;SDS011;24973;47.178;15.316;2023-03-20T16:49:47;0.87;;;0.87;;
21798;SDS011;24973;47.178;15.316;2023-03-20T16:52:55;1.10;;;1.00;;
21798;SDS011;24973;47.178;15.316;2023-03-20T16:55:45;1.80;;;1.10;;
21798;SDS011;24973;47.178;15.316;2023-03-20T16:58:36;3.23;;;1.80;;
21798;SDS011;24973;47.178;15.316;2023-03-20T17:01:26;1.30;;;1.20;;